Time;durP1;ratioP1;P1;durP2;ratioP2;P2;SDS_P1;SDS_P2;PMS_P1;PMS_P2;Temp;Humidity;BMP_temperature;BMP_pressure;BME280_temperature;BME280_humidity;BME280_pressure;Samples;Min_cycle;Max_cycle;Signal;HPM_P1;HPM_P2
2022/07/09 00:00:00;;;;;;;6.45;3.42;;;21.20;90.70;;;;;;5094382;28;20416;-72
2022/07/09 00:02:26;;;;;;;6.35;3.30;;;21.20;90.70;;;;;;5094535;28;20479;-72
2022/07/09 00:04:51;;;;;;;5.97;3.58;;;21.20;90.70;;;;;;5094447;28;20024;-72
2022/07/09 00:07:17;;;;;;;6.68;3.40;;;21.10;90.80;;;;;;5094641;28;20357;-71
2022/07/09 00:09:42;;;;;;;6.82;3.35;;;21.10;90.90;;;;;;5093925;28;20070;-72
2022/07/09 00:12:08;;;;;;;6.75;3.67;;;21.10;90.90;;;;;;5094502;28;20039;-72
2022/07/09 00:14:34;;;;;;;5.32;3.17;;;21.10;91.00;;;;;;5094143;28;20540;-72
2022/07/09 00:17:00;;;;;;;8.48;4.22;;;21.00;91.00;;;;;;5093394;28;20040;-72
2022/07/09 00:19:26;;;;;;;3.70;2.50;;;21.00;91.10;;;;;;5094339;28;20027;-71
2022/07/09 00:21:51;;;;;;;5.95;3.17;;;21.00;91.10;;;;;;5093899;28;20080;-72
2022/07/09 00:24:17;;;;;;;6.53;3.80;;;20.90;91.10;;;;;;5093588;28;20022;-72
2022/07/09 00:26:42;;;;;;;5.22;4.28;;;20.90;91.10;;;;;;5093933;28;20459;-72
2022/07/09 00:29:09;;;;;;;6.70;3.67;;;20.90;91.30;;;;;;5094312;28;20036;-72
2022/07/09 00:31:34;;;;;;;7.45;4.55;;;20.80;91.50;;;;;;5095508;28;20072;-71
2022/07/09 00:34:00;;;;;;;10.32;4.07;;;20.80;91.60;;;;;;5104998;28;20032;-71
2022/07/09 00:36:25;;;;;;;5.30;4.03;;;20.70;91.50;;;;;;5096526;28;20031;-71
2022/07/09 00:38:51;;;;;;;4.40;3.35;;;20.70;91.60;;;;;;5094132;28;20046;-72
2022/07/09 00:41:16;;;;;;;4.93;3.28;;;20.70;91.70;;;;;;5093912;28;20382;-72
2022/07/09 00:43:49;;;;;;;5.68;3.75;;;20.70;91.70;;;;;;5093593;28;20077;-71
2022/07/09 00:46:16;;;;;;;5.13;3.83;;;20.70;91.70;;;;;;5093478;28;20024;-72
2022/07/09 00:48:41;;;;;;;6.07;4.00;;;20.70;91.70;;;;;;5093589;28;20031;-72
2022/07/09 00:51:08;;;;;;;6.88;4.45;;;20.70;91.80;;;;;;5093899;28;20410;-72
2022/07/09 00:53:34;;;;;;;6.22;3.85;;;20.60;92.10;;;;;;5093616;28;20020;-72
2022/07/09 00:56:00;;;;;;;4.43;3.58;;;20.60;91.90;;;;;;5093297;28;20460;-72
2022/07/09 00:58:27;;;;;;;5.60;3.88;;;20.60;92.00;;;;;;5093637;28;20035;-72
2022/07/09 01:00:54;;;;;;;6.18;4.30;;;20.60;92.00;;;;;;5093638;28;20032;-72
2022/07/09 01:03:20;;;;;;;10.95;5.10;;;20.60;92.30;;;;;;5093517;28;20112;-72
2022/07/09 01:05:46;;;;;;;7.50;5.13;;;20.50;92.20;;;;;;5093193;28;20043;-72
2022/07/09 01:08:12;;;;;;;7.00;4.72;;;20.40;92.30;;;;;;5093352;28;20103;-72
2022/07/09 01:10:38;;;;;;;5.93;4.80;;;20.50;92.50;;;;;;5093574;28;20020;-71
2022/07/09 01:13:05;;;;;;;6.90;4.82;;;20.40;92.50;;;;;;5093450;28;20044;-72
2022/07/09 01:15:31;;;;;;;7.25;4.03;;;20.40;92.60;;;;;;5093344;28;20028;-72
2022/07/09 01:17:58;;;;;;;4.97;4.47;;;20.40;92.60;;;;;;5093214;28;20020;-72
2022/07/09 01:20:25;;;;;;;5.95;4.45;;;20.40;92.60;;;;;;5093063;28;20547;-72
2022/07/09 01:22:51;;;;;;;6.18;3.92;;;20.30;92.70;;;;;;5093242;28;20059;-72
2022/07/09 01:25:18;;;;;;;9.43;5.18;;;20.40;92.60;;;;;;5093311;28;20473;-72
2022/07/09 01:27:45;;;;;;;12.70;5.55;;;20.40;92.70;;;;;;5097895;28;20038;-71
2022/07/09 01:30:11;;;;;;;6.53;4.40;;;20.30;92.80;;;;;;5104330;28;20119;-72
2022/07/09 01:32:37;;;;;;;7.68;4.22;;;20.30;92.80;;;;;;5098482;28;20024;-72
2022/07/09 01:35:03;;;;;;;4.97;3.80;;;20.30;92.80;;;;;;5097180;28;20048;-72
2022/07/09 01:37:29;;;;;;;10.63;5.25;;;20.30;92.80;;;;;;5097439;28;20050;-72
2022/07/09 01:39:54;;;;;;;8.02;4.05;;;20.30;92.80;;;;;;5097277;28;20534;-70
2022/07/09 01:42:20;;;;;;;7.53;3.90;;;20.30;92.90;;;;;;5097102;28;20028;-71
2022/07/09 01:44:48;;;;;;;5.97;4.13;;;20.40;92.90;;;;;;5096906;28;20475;-71
2022/07/09 01:47:16;;;;;;;5.82;3.85;;;20.30;92.80;;;;;;5097274;28;20035;-71
2022/07/09 01:49:42;;;;;;;7.07;4.50;;;20.30;92.80;;;;;;5096771;28;20037;-71
2022/07/09 01:52:08;;;;;;;5.15;4.20;;;20.40;92.80;;;;;;5096860;28;20020;-71
2022/07/09 01:54:34;;;;;;;5.88;4.05;;;20.40;92.80;;;;;;5096831;28;20035;-71
2022/07/09 01:57:00;;;;;;;9.05;4.80;;;20.40;92.80;;;;;;5097015;28;20028;-71
2022/07/09 01:59:25;;;;;;;7.60;4.40;;;20.40;92.80;;;;;;5096605;28;20023;-72
2022/07/09 02:01:51;;;;;;;7.13;4.95;;;20.40;92.80;;;;;;5096556;28;20036;-71
2022/07/09 02:04:16;;;;;;;6.45;4.38;;;20.40;92.80;;;;;;5096640;28;20020;-71
2022/07/09 02:06:42;;;;;;;6.32;4.63;;;20.40;92.80;;;;;;5096539;28;20024;-71
2022/07/09 02:09:08;;;;;;;5.50;4.43;;;20.40;92.80;;;;;;5096813;28;20028;-71
2022/07/09 02:11:33;;;;;;;7.72;4.80;;;20.40;92.90;;;;;;5096246;28;20024;-71
2022/07/09 02:13:59;;;;;;;8.40;4.75;;;20.30;92.80;;;;;;5096433;28;20028;-71
2022/07/09 02:16:24;;;;;;;5.25;4.45;;;20.40;92.90;;;;;;5096576;28;20047;-71
2022/07/09 02:18:53;;;;;;;7.40;4.70;;;20.30;92.80;;;;;;5096347;28;20024;-71
2022/07/09 02:21:18;;;;;;;8.75;5.25;;;20.30;92.80;;;;;;5096319;28;20044;-71
2022/07/09 02:23:45;;;;;;;6.50;4.70;;;20.30;93.10;;;;;;5100361;28;20028;-70
2022/07/09 02:26:11;;;;;;;6.40;4.32;;;20.30;92.80;;;;;;5108992;28;20039;-71
2022/07/09 02:28:36;;;;;;;7.90;5.10;;;20.30;92.80;;;;;;5097687;28;20020;-71
2022/07/09 02:31:02;;;;;;;6.70;5.15;;;20.30;92.80;;;;;;5096148;28;20110;-71
2022/07/09 02:33:28;;;;;;;9.13;5.88;;;20.20;92.80;;;;;;5095944;28;20020;-71
2022/07/09 02:35:53;;;;;;;9.60;5.20;;;20.20;92.90;;;;;;5096066;28;20099;-71
2022/07/09 02:38:21;;;;;;;10.85;6.18;;;20.10;92.90;;;;;;5096070;28;20050;-71
2022/07/09 02:40:47;;;;;;;9.57;5.03;;;20.10;93.10;;;;;;5094613;28;20509;-71
2022/07/09 02:43:13;;;;;;;8.90;5.53;;;20.00;93.20;;;;;;5095895;28;20107;-72
2022/07/09 02:45:38;;;;;;;7.50;5.43;;;20.00;93.20;;;;;;5095850;28;20026;-71
2022/07/09 02:48:04;;;;;;;9.23;4.82;;;19.90;93.30;;;;;;5095595;28;20020;-71
2022/07/09 02:50:29;;;;;;;8.13;4.82;;;19.90;93.30;;;;;;5095181;28;20047;-71
2022/07/09 02:52:55;;;;;;;8.30;5.05;;;19.90;93.40;;;;;;5095543;28;20494;-72
2022/07/09 02:55:21;;;;;;;6.82;4.07;;;19.90;93.40;;;;;;5095746;28;20028;-72
2022/07/09 02:57:46;;;;;;;6.60;4.75;;;19.80;93.50;;;;;;5095814;28;20460;-71
2022/07/09 03:00:12;;;;;;;10.18;6.30;;;19.90;93.50;;;;;;5095413;28;20107;-71
2022/07/09 03:02:38;;;;;;;10.98;6.68;;;19.80;93.70;;;;;;5095470;28;20471;-71
2022/07/09 03:05:04;;;;;;;10.73;6.35;;;19.70;94.00;;;;;;5095749;28;20430;-71
2022/07/09 03:07:29;;;;;;;8.70;5.50;;;19.60;94.20;;;;;;5095369;28;20386;-71
2022/07/09 03:09:56;;;;;;;6.57;4.70;;;19.50;94.30;;;;;;5095321;28;20035;-71
2022/07/09 03:12:21;;;;;;;5.22;4.50;;;19.50;94.40;;;;;;5095403;28;20031;-71
2022/07/09 03:14:47;;;;;;;6.72;4.95;;;19.50;94.60;;;;;;5095562;28;20020;-71
2022/07/09 03:17:12;;;;;;;10.52;6.47;;;19.60;94.30;;;;;;5095456;28;20459;-72
2022/07/09 03:19:38;;;;;;;9.10;5.90;;;19.60;94.40;;;;;;5095354;28;20016;-68
2022/07/09 03:22:04;;;;;;;9.70;6.47;;;19.60;94.40;;;;;;5107605;28;20085;-71
2022/07/09 03:24:30;;;;;;;9.43;6.28;;;19.60;94.40;;;;;;5095828;28;20109;-71
2022/07/09 03:26:55;;;;;;;8.75;5.65;;;19.60;94.40;;;;;;5095160;28;20063;-72
2022/07/09 03:29:21;;;;;;;9.63;6.53;;;19.60;94.40;;;;;;5095230;28;20056;-71
2022/07/09 03:31:47;;;;;;;8.95;7.30;;;19.60;94.40;;;;;;5094622;28;20051;-71
2022/07/09 03:34:12;;;;;;;8.98;6.78;;;19.60;94.50;;;;;;5094875;28;20059;-71
2022/07/09 03:36:38;;;;;;;8.48;6.15;;;19.60;94.70;;;;;;5095123;28;20020;-71
2022/07/09 03:39:03;;;;;;;7.93;6.32;;;19.50;94.70;;;;;;5094664;28;20055;-71
2022/07/09 03:41:29;;;;;;;9.23;7.05;;;19.50;94.70;;;;;;5094670;28;20071;-72
2022/07/09 03:43:55;;;;;;;9.73;6.97;;;19.50;94.90;;;;;;5094742;28;20027;-72
2022/07/09 03:46:20;;;;;;;8.30;6.47;;;19.40;94.90;;;;;;5094354;28;20024;-72
2022/07/09 03:48:48;;;;;;;10.27;7.00;;;19.40;94.90;;;;;;5094718;28;20016;-72
2022/07/09 03:51:14;;;;;;;7.50;6.20;;;19.40;95.00;;;;;;5094590;28;20050;-72
2022/07/09 03:53:39;;;;;;;8.13;5.90;;;19.40;95.00;;;;;;5094482;28;20569;-72
2022/07/09 03:56:06;;;;;;;9.23;5.95;;;19.40;95.00;;;;;;5094544;28;20099;-72
2022/07/09 03:58:31;;;;;;;7.13;5.50;;;19.30;95.00;;;;;;5094348;28;20024;-72
2022/07/09 04:00:57;;;;;;;6.53;5.22;;;19.30;95.10;;;;;;5094232;28;20046;-72
2022/07/09 04:03:22;;;;;;;8.45;5.47;;;19.40;95.10;;;;;;5094616;28;20070;-72
2022/07/09 04:05:48;;;;;;;6.80;6.10;;;19.40;95.00;;;;;;5094555;28;20032;-72
2022/07/09 04:08:14;;;;;;;6.95;5.35;;;19.40;95.10;;;;;;5094629;28;20052;-72
2022/07/09 04:10:39;;;;;;;8.80;6.43;;;19.40;95.10;;;;;;5094280;28;20031;-71
2022/07/09 04:13:05;;;;;;;7.32;5.65;;;19.40;95.30;;;;;;5094039;28;20062;-71
2022/07/09 04:15:32;;;;;;;7.15;5.20;;;19.40;95.30;;;;;;5097091;28;20024;-70
2022/07/09 04:17:58;;;;;;;7.90;6.40;;;19.40;95.30;;;;;;5107535;28;20040;-69
2022/07/09 04:20:25;;;;;;;12.60;7.85;;;19.50;95.20;;;;;;5094993;28;20071;-72
2022/07/09 04:22:51;;;;;;;9.20;5.28;;;19.50;95.30;;;;;;5094053;28;20036;-71
2022/07/09 04:25:17;;;;;;;7.70;6.13;;;19.50;95.40;;;;;;5094136;28;20379;-71
2022/07/09 04:27:42;;;;;;;4.38;3.60;;;19.50;95.40;;;;;;5094121;28;20028;-71
2022/07/09 04:30:10;;;;;;;8.40;6.07;;;19.60;95.40;;;;;;5093758;28;20043;-71
2022/07/09 04:32:36;;;;;;;9.35;6.70;;;19.60;95.30;;;;;;5093620;28;20105;-72
2022/07/09 04:35:02;;;;;;;8.95;5.93;;;19.60;95.30;;;;;;5094142;28;20138;-71
2022/07/09 04:37:28;;;;;;;6.57;5.03;;;19.60;95.30;;;;;;5094053;28;20024;-71
2022/07/09 04:39:53;;;;;;;8.65;6.88;;;19.70;95.30;;;;;;5093624;28;20074;-71
2022/07/09 04:42:20;;;;;;;8.38;6.57;;;19.70;95.30;;;;;;5093454;28;20057;-71
2022/07/09 04:44:45;;;;;;;6.13;4.60;;;19.80;95.20;;;;;;5093586;28;20051;-71
2022/07/09 04:47:11;;;;;;;10.27;7.38;;;19.80;95.50;;;;;;5093827;28;20056;-72
2022/07/09 04:49:37;;;;;;;9.75;6.93;;;19.80;95.20;;;;;;5093418;28;20055;-72
2022/07/09 04:52:03;;;;;;;8.88;6.13;;;19.70;95.30;;;;;;5093275;28;20035;-72
2022/07/09 04:54:28;;;;;;;8.13;5.60;;;19.70;95.40;;;;;;5093297;28;20059;-72
2022/07/09 04:56:54;;;;;;;7.93;5.70;;;19.70;95.40;;;;;;5093410;28;20051;-72
2022/07/09 04:59:20;;;;;;;6.82;4.75;;;19.80;95.40;;;;;;5093102;28;20024;-72
2022/07/09 05:01:46;;;;;;;7.07;4.63;;;19.70;95.40;;;;;;5093296;28;20039;-72
2022/07/09 05:04:12;;;;;;;9.57;7.68;;;19.80;95.30;;;;;;5093342;28;20016;-72
2022/07/09 05:06:38;;;;;;;10.63;8.13;;;19.80;95.30;;;;;;5093643;28;20425;-71
2022/07/09 05:09:03;;;;;;;13.15;9.00;;;19.90;95.30;;;;;;5094929;28;20447;-72
2022/07/09 05:11:30;;;;;;;11.88;7.78;;;19.90;95.40;;;;;;5093732;28;20055;-72
2022/07/09 05:13:56;;;;;;;12.32;9.50;;;19.90;95.40;;;;;;5105938;28;20024;-72
2022/07/09 05:16:22;;;;;;;13.88;11.52;;;19.90;95.50;;;;;;5094029;28;20584;-72
2022/07/09 05:18:47;;;;;;;13.18;10.90;;;19.90;95.60;;;;;;5093560;28;20102;-72
2022/07/09 05:21:13;;;;;;;17.88;12.23;;;19.90;95.70;;;;;;5093256;28;20467;-71
2022/07/09 05:23:38;;;;;;;19.63;13.88;;;19.80;95.80;;;;;;5093028;28;20051;-72
2022/07/09 05:26:04;;;;;;;17.52;11.40;;;19.90;96.00;;;;;;5093238;28;20020;-72
2022/07/09 05:28:30;;;;;;;15.02;10.68;;;19.80;96.00;;;;;;5093419;28;20020;-72
2022/07/09 05:30:55;;;;;;;13.85;9.85;;;19.80;96.00;;;;;;5093431;28;20031;-72
2022/07/09 05:33:21;;;;;;;14.98;11.13;;;19.80;96.10;;;;;;5093143;28;20070;-71
2022/07/09 05:35:47;;;;;;;14.77;11.65;;;19.80;96.20;;;;;;5093294;28;20032;-72
2022/07/09 05:38:12;;;;;;;15.75;10.80;;;19.80;96.10;;;;;;5093056;28;20028;-72
2022/07/09 05:40:38;;;;;;;14.48;11.30;;;19.90;96.20;;;;;;5093044;28;20032;-72
2022/07/09 05:43:04;;;;;;;13.75;10.40;;;19.90;96.50;;;;;;5092943;28;20375;-71
2022/07/09 05:45:29;;;;;;;10.98;8.38;;;19.90;96.20;;;;;;5093049;28;20035;-72
2022/07/09 05:47:55;;;;;;;10.13;8.43;;;20.00;96.20;;;;;;5093237;28;20031;-72
2022/07/09 05:50:21;;;;;;;11.95;8.95;;;20.00;96.50;;;;;;5092862;28;20044;-72
2022/07/09 05:52:47;;;;;;;12.65;9.07;;;20.10;96.20;;;;;;5093242;28;20027;-72
2022/07/09 05:55:14;;;;;;;12.30;8.93;;;20.20;96.30;;;;;;5092756;28;20024;-72
2022/07/09 05:57:39;;;;;;;14.65;10.18;;;20.20;96.20;;;;;;5092828;28;20070;-72
2022/07/09 06:00:07;;;;;;;12.85;9.45;;;20.30;96.20;;;;;;5092746;28;20471;-72
2022/07/09 06:02:32;;;;;;;11.07;8.85;;;20.30;96.20;;;;;;5093210;28;20032;-72
2022/07/09 06:04:58;;;;;;;10.88;8.27;;;20.40;96.20;;;;;;5093102;28;20020;-72
2022/07/09 06:07:23;;;;;;;10.60;7.20;;;20.40;96.20;;;;;;5094154;28;20032;-69
2022/07/09 06:09:49;;;;;;;12.80;9.38;;;20.40;96.20;;;;;;5106444;28;20456;-72
2022/07/09 06:12:15;;;;;;;14.48;9.68;;;20.40;96.20;;;;;;5093689;28;20025;-72
2022/07/09 06:14:41;;;;;;;12.07;10.77;;;20.30;96.30;;;;;;5093867;28;20031;-71
2022/07/09 06:17:06;;;;;;;12.52;9.55;;;20.40;96.40;;;;;;5096666;28;20363;-72
2022/07/09 06:19:36;;;;;;;13.63;10.27;;;20.40;96.50;;;;;;5096445;28;20024;-72
2022/07/09 06:22:02;;;;;;;16.35;11.10;;;20.40;96.60;;;;;;5096560;28;20115;-72
2022/07/09 06:24:29;;;;;;;16.92;10.95;;;20.40;96.60;;;;;;5096480;28;20024;-72
2022/07/09 06:26:55;;;;;;;13.32;10.48;;;20.40;97.10;;;;;;5096139;28;20391;-72
2022/07/09 06:29:21;;;;;;;12.65;10.50;;;20.40;96.90;;;;;;5095861;28;20021;-71
2022/07/09 06:31:46;;;;;;;13.32;10.35;;;20.40;96.90;;;;;;5096420;28;20031;-71
2022/07/09 06:34:12;;;;;;;11.20;9.45;;;20.40;97.00;;;;;;5096346;28;20475;-71
2022/07/09 06:36:38;;;;;;;13.85;11.00;;;20.40;96.90;;;;;;5095912;28;20023;-71
2022/07/09 06:41:48;;;;;;;12.80;8.68;;;20.50;97.30;;;;;;5095728;28;20081;-72
2022/07/09 06:44:14;;;;;;;9.88;7.25;;;20.40;96.90;;;;;;5096150;28;20425;-71
2022/07/09 06:46:39;;;;;;;12.88;6.82;;;20.50;96.90;;;;;;5095916;28;20513;-71
2022/07/09 06:49:05;;;;;;;12.57;6.95;;;20.50;96.80;;;;;;5095228;28;20044;-71
2022/07/09 06:51:32;;;;;;;9.60;7.53;;;20.70;97.00;;;;;;5095714;28;20020;-71
2022/07/09 06:54:00;;;;;;;10.02;5.93;;;20.80;96.90;;;;;;5095829;28;20024;-72
2022/07/09 06:56:26;;;;;;;7.90;6.18;;;20.80;96.40;;;;;;5095563;28;20020;-72
2022/07/09 06:58:51;;;;;;;10.52;8.25;;;20.80;96.30;;;;;;5095589;28;20417;-72
2022/07/09 07:01:17;;;;;;;11.52;7.80;;;20.80;96.30;;;;;;5095350;28;20028;-72
2022/07/09 07:03:42;;;;;;;7.80;6.70;;;20.80;96.30;;;;;;5095613;28;20106;-70
2022/07/09 07:06:08;;;;;;;9.98;7.32;;;20.80;96.30;;;;;;5095894;28;20489;-72
2022/07/09 07:08:34;;;;;;;8.05;3.67;;;20.80;96.50;;;;;;5095611;28;20028;-72
2022/07/09 07:11:00;;;;;;;4.57;2.75;;;20.80;95.80;;;;;;5095593;28;20069;-72
2022/07/09 07:13:25;;;;;;;7.47;3.78;;;20.90;95.70;;;;;;5095629;28;20099;-72
2022/07/09 07:15:51;;;;;;;3.67;2.80;;;21.00;96.10;;;;;;5095291;28;20028;-72
2022/07/09 07:18:17;;;;;;;5.13;2.40;;;21.00;95.60;;;;;;5095451;28;20016;-72
2022/07/09 07:20:45;;;;;;;5.07;2.50;;;21.10;94.90;;;;;;5094841;28;20056;-71
2022/07/09 07:23:11;;;;;;;5.95;3.15;;;21.10;94.40;;;;;;5094902;28;20533;-72
2022/07/09 07:25:37;;;;;;;6.03;4.10;;;21.10;94.30;;;;;;5094825;28;20032;-72
2022/07/09 07:28:04;;;;;;;6.55;4.53;;;21.10;94.60;;;;;;5094878;28;20020;-72
2022/07/09 07:30:32;;;;;;;6.65;4.97;;;21.20;94.70;;;;;;5094935;28;20028;-72
2022/07/09 07:33:01;;;;;;;5.10;3.58;;;21.20;94.90;;;;;;5094830;28;20035;-72
2022/07/09 07:35:27;;;;;;;7.10;5.00;;;21.20;94.80;;;;;;5094828;28;20039;-72
2022/07/09 07:37:52;;;;;;;8.13;4.80;;;21.30;94.90;;;;;;5094761;28;20070;-72
2022/07/09 07:40:20;;;;;;;6.90;4.57;;;21.40;95.00;;;;;;5095078;28;20391;-72
2022/07/09 07:42:45;;;;;;;5.25;3.53;;;21.40;95.00;;;;;;5094821;28;20061;-72
2022/07/09 07:45:11;;;;;;;8.40;5.20;;;21.50;95.10;;;;;;5094637;28;20016;-72
2022/07/09 07:47:36;;;;;;;9.52;5.38;;;21.70;94.90;;;;;;5094691;28;20089;-72
2022/07/09 07:50:03;;;;;;;5.72;3.20;;;21.70;94.70;;;;;;5094265;28;20040;-72
2022/07/09 07:52:28;;;;;;;7.13;4.20;;;21.80;94.30;;;;;;5094469;28;20028;-72
2022/07/09 07:54:54;;;;;;;8.10;5.28;;;21.80;93.90;;;;;;5094758;28;20016;-72
2022/07/09 07:57:19;;;;;;;6.30;4.40;;;21.90;94.10;;;;;;5094641;28;20056;-72
2022/07/09 07:59:46;;;;;;;9.63;4.72;;;22.00;94.60;;;;;;5094367;28;20024;-74
2022/07/09 08:02:12;;;;;;;7.68;4.95;;;22.10;94.10;;;;;;5094042;28;20395;-72
2022/07/09 08:04:37;;;;;;;4.35;3.10;;;22.20;94.30;;;;;;5094230;28;20026;-72
2022/07/09 08:07:03;;;;;;;4.13;2.80;;;22.20;93.90;;;;;;5094533;28;20040;-72
2022/07/09 08:09:29;;;;;;;6.55;2.20;;;22.20;93.40;;;;;;5094146;28;20387;-72
2022/07/09 08:11:55;;;;;;;7.07;2.50;;;22.20;93.00;;;;;;5094439;28;20020;-72
2022/07/09 08:14:21;;;;;;;5.32;2.38;;;22.20;92.80;;;;;;5094087;28;20489;-72
2022/07/09 08:16:46;;;;;;;4.90;2.17;;;22.20;92.60;;;;;;5094006;28;20039;-72
2022/07/09 08:19:14;;;;;;;4.18;2.00;;;22.30;92.20;;;;;;5093854;28;20106;-72
2022/07/09 08:21:39;;;;;;;4.18;1.88;;;22.20;92.30;;;;;;5093966;28;20043;-73
2022/07/09 08:24:06;;;;;;;5.03;1.92;;;22.30;92.30;;;;;;5094043;28;20020;-73
2022/07/09 08:26:32;;;;;;;2.97;1.88;;;22.30;92.20;;;;;;5094068;28;20107;-72
2022/07/09 08:28:57;;;;;;;4.50;1.60;;;22.30;92.20;;;;;;5093514;28;20039;-73
2022/07/09 08:31:23;;;;;;;4.70;1.85;;;22.40;92.20;;;;;;5093725;28;20028;-73
2022/07/09 08:33:50;;;;;;;5.78;2.10;;;22.40;92.00;;;;;;5093681;28;20022;-72
2022/07/09 08:36:16;;;;;;;6.28;1.90;;;22.40;91.80;;;;;;5093931;28;20096;-72
2022/07/09 08:38:43;;;;;;;4.05;2.17;;;22.40;91.80;;;;;;5092755;28;20499;-73
2022/07/09 08:41:09;;;;;;;8.38;2.65;;;22.40;91.90;;;;;;5093684;28;20036;-73
2022/07/09 08:43:36;;;;;;;5.18;2.28;;;22.40;91.80;;;;;;5093966;28;20366;-72
2022/07/09 08:46:02;;;;;;;4.45;1.92;;;22.50;91.80;;;;;;5093641;28;20055;-71
2022/07/09 08:48:32;;;;;;;5.53;2.15;;;22.60;91.90;;;;;;5093351;28;20021;-72
2022/07/09 08:50:58;;;;;;;7.97;2.67;;;22.70;92.00;;;;;;5093687;28;20118;-72
2022/07/09 08:53:27;;;;;;;6.30;3.35;;;22.70;91.80;;;;;;5093404;28;20035;-72
2022/07/09 08:55:54;;;;;;;7.78;3.10;;;22.60;91.40;;;;;;5093938;28;20462;-72
2022/07/09 08:58:19;;;;;;;6.93;3.22;;;22.60;91.60;;;;;;5093882;28;20028;-72
2022/07/09 09:00:48;;;;;;;7.20;3.22;;;22.60;91.60;;;;;;5093362;28;20039;-71
2022/07/09 09:03:14;;;;;;;6.65;3.00;;;22.40;91.70;;;;;;5093191;28;20491;-72
2022/07/09 09:05:39;;;;;;;4.43;2.45;;;22.40;91.80;;;;;;5093078;28;20084;-71
2022/07/09 09:08:24;;;;;;;7.20;3.00;;;22.30;92.00;;;;;;5093571;28;20112;-72
2022/07/09 09:10:50;;;;;;;6.85;4.05;;;22.20;92.10;;;;;;5093328;28;20100;-71
2022/07/09 09:13:16;;;;;;;7.15;4.10;;;22.10;92.00;;;;;;5093286;28;20475;-71
2022/07/09 09:15:43;;;;;;;8.93;4.82;;;22.10;92.40;;;;;;5093111;28;20496;-72
2022/07/09 09:18:08;;;;;;;8.25;5.53;;;22.10;92.30;;;;;;5093315;28;20024;-72
2022/07/09 09:20:34;;;;;;;11.13;6.38;;;22.00;92.40;;;;;;5093268;28;20479;-72
2022/07/09 09:23:02;;;;;;;10.02;6.40;;;22.00;92.60;;;;;;5093108;28;20432;-70
2022/07/09 09:25:28;;;;;;;12.13;7.45;;;22.10;92.60;;;;;;5093125;28;20475;-72
2022/07/09 09:27:58;;;;;;;9.05;7.40;;;22.10;92.60;;;;;;5093146;28;20032;-73
2022/07/09 09:30:26;;;;;;;9.23;7.45;;;22.20;92.50;;;;;;5093386;28;20017;-73
2022/07/09 09:33:02;;;;;;;12.20;8.00;;;22.20;92.50;;;;;;5093074;28;20032;-72
2022/07/09 09:35:30;;;;;;;10.25;7.30;;;22.20;92.50;;;;;;5093077;28;20031;-72
2022/07/09 09:37:56;;;;;;;11.50;8.98;;;22.20;92.60;;;;;;5092986;28;20493;-72
2022/07/09 09:40:23;;;;;;;10.65;7.97;;;22.10;92.60;;;;;;5092714;28;20024;-72
2022/07/09 09:42:49;;;;;;;8.07;7.28;;;22.00;92.70;;;;;;5092837;28;20038;-72
2022/07/09 09:45:16;;;;;;;8.23;6.32;;;22.00;92.70;;;;;;5093182;28;20035;-71
2022/07/09 09:47:50;;;;;;;10.90;6.55;;;22.00;92.90;;;;;;5093079;28;20070;-72
2022/07/09 09:50:18;;;;;;;7.90;5.30;;;22.00;92.90;;;;;;5096378;28;20071;-72
2022/07/09 09:52:49;;;;;;;7.22;4.97;;;22.00;92.80;;;;;;5096425;28;20035;-71
2022/07/09 09:55:17;;;;;;;8.63;5.20;;;22.00;92.90;;;;;;5096922;28;20035;-72
2022/07/09 09:57:42;;;;;;;7.72;5.90;;;22.20;93.00;;;;;;5097113;28;20401;-72
2022/07/09 10:00:10;;;;;;;6.13;5.53;;;22.30;92.90;;;;;;5096568;28;20103;-72
2022/07/09 10:02:38;;;;;;;7.72;5.53;;;22.30;92.90;;;;;;5096640;28;20054;-71
2022/07/09 10:05:04;;;;;;;9.20;4.57;;;22.40;93.00;;;;;;5096616;28;20024;-72
2022/07/09 10:07:32;;;;;;;11.02;4.70;;;22.40;92.70;;;;;;5096402;28;20541;-71
2022/07/09 10:09:58;;;;;;;8.02;4.28;;;22.50;92.40;;;;;;5096560;28;20028;-71
2022/07/09 10:12:27;;;;;;;5.07;3.45;;;22.40;92.30;;;;;;5096481;28;20035;-71
2022/07/09 10:14:53;;;;;;;5.05;3.53;;;22.40;92.40;;;;;;5096717;28;20024;-71
2022/07/09 10:17:19;;;;;;;7.03;3.00;;;22.40;92.40;;;;;;5096289;28;20039;-72
2022/07/09 10:20:03;;;;;;;3.72;2.15;;;22.40;92.50;;;;;;5096267;28;20027;-72
2022/07/09 10:22:37;;;;;;;3.08;1.95;;;22.40;91.60;;;;;;5095997;28;20039;-72
2022/07/09 10:25:04;;;;;;;3.03;1.38;;;22.40;91.50;;;;;;5096352;28;20081;-72
2022/07/09 10:27:42;;;;;;;6.53;1.60;;;22.40;91.50;;;;;;5096166;28;20121;-72
2022/07/09 10:30:21;;;;;;;3.53;1.30;;;22.40;91.00;;;;;;5096112;28;20020;-72
2022/07/09 10:33:00;;;;;;;3.10;0.98;;;22.30;90.40;;;;;;5095744;28;20107;-72
2022/07/09 10:35:26;;;;;;;2.20;0.90;;;22.30;90.40;;;;;;5096047;28;20028;-72
2022/07/09 10:37:53;;;;;;;1.83;0.60;;;22.30;90.40;;;;;;5096070;28;20402;-72
2022/07/09 10:40:20;;;;;;;3.10;0.95;;;22.30;90.70;;;;;;5095610;28;20031;-72
2022/07/09 10:42:59;;;;;;;2.17;0.70;;;22.50;90.20;;;;;;5095841;28;20047;-72
2022/07/09 10:45:27;;;;;;;3.63;0.70;;;22.60;90.00;;;;;;5095975;28;20324;-72
2022/07/09 10:47:58;;;;;;;2.30;0.60;;;22.90;89.70;;;;;;5095940;28;20030;-73
2022/07/09 10:50:26;;;;;;;3.30;1.05;;;23.00;89.00;;;;;;5095355;28;20044;-72
2022/07/09 10:52:52;;;;;;;2.78;0.90;;;23.20;89.40;;;;;;5095572;28;20356;-73
2022/07/09 10:55:22;;;;;;;2.40;1.08;;;23.40;87.40;;;;;;5095955;28;20081;-72
2022/07/09 10:57:48;;;;;;;3.25;0.50;;;23.40;87.80;;;;;;5095601;28;20028;-72
2022/07/09 11:00:28;;;;;;;2.20;0.50;;;23.50;86.10;;;;;;5094903;28;20031;-72
2022/07/09 11:03:04;;;;;;;1.05;0.40;;;23.50;86.80;;;;;;5095506;28;20031;-72
2022/07/09 11:05:33;;;;;;;1.42;0.40;;;23.70;86.50;;;;;;5095546;28;20429;-72
2022/07/09 11:08:06;;;;;;;1.90;0.40;;;23.90;84.70;;;;;;5095332;28;20491;-71
2022/07/09 11:10:37;;;;;;;1.25;0.60;;;24.10;84.80;;;;;;5095093;28;20471;-71
2022/07/09 11:13:06;;;;;;;2.53;0.60;;;24.30;83.40;;;;;;5095196;28;20028;-71
2022/07/09 11:15:35;;;;;;;1.15;0.40;;;24.30;83.30;;;;;;5095516;28;20103;-72
2022/07/09 11:18:08;;;;;;;1.98;0.50;;;24.40;82.50;;;;;;5095042;28;20109;-71
2022/07/09 11:20:37;;;;;;;2.13;0.40;;;24.40;82.50;;;;;;5094603;28;20518;-72
2022/07/09 11:23:03;;;;;;;4.88;1.60;;;24.40;81.70;;;;;;5095272;28;20032;-73
2022/07/09 11:25:29;;;;;;;2.70;0.40;;;24.50;83.50;;;;;;5095333;28;20528;-72
2022/07/09 11:27:59;;;;;;;1.63;0.20;;;24.70;83.30;;;;;;5095273;28;20024;-73
2022/07/09 11:30:25;;;;;;;0.75;0.20;;;24.80;81.10;;;;;;5094891;28;20016;-72
2022/07/09 11:32:51;;;;;;;1.05;0.30;;;24.80;79.30;;;;;;5094479;28;20027;-72
2022/07/09 11:35:34;;;;;;;2.03;0.30;;;24.80;77.60;;;;;;5095129;28;20028;-72
2022/07/09 11:38:02;;;;;;;0.80;0.20;;;24.60;76.10;;;;;;5095025;28;20027;-73
2022/07/09 11:40:28;;;;;;;0.88;0.20;;;24.50;76.70;;;;;;5094509;28;20024;-71
2022/07/09 11:42:54;;;;;;;1.08;0.30;;;24.50;76.90;;;;;;5095005;28;20028;-71
2022/07/09 11:45:27;;;;;;;2.42;0.20;;;24.50;77.50;;;;;;5098505;28;20107;-69
2022/07/09 11:48:07;;;;;;;2.83;0.20;;;24.60;77.00;;;;;;5095981;28;20367;-71
2022/07/09 11:50:42;;;;;;;1.15;0.20;;;24.50;76.70;;;;;;5094506;28;20040;-72
2022/07/09 11:53:18;;;;;;;0.70;0.20;;;24.50;75.60;;;;;;5094679;28;20035;-72
2022/07/09 11:55:44;;;;;;;0.90;0.20;;;24.60;76.30;;;;;;5094484;28;20032;-72
2022/07/09 11:58:09;;;;;;;0.95;0.20;;;24.60;75.10;;;;;;5094269;28;20530;-72
2022/07/09 12:00:39;;;;;;;2.75;0.20;;;24.50;75.10;;;;;;5094271;28;20093;-72
2022/07/09 12:03:05;;;;;;;1.70;0.20;;;24.70;75.70;;;;;;5094505;28;20089;-71
2022/07/09 12:05:39;;;;;;;1.00;0.20;;;24.90;75.00;;;;;;5094189;28;20463;-72
2022/07/09 12:08:07;;;;;;;4.50;0.40;;;25.00;74.30;;;;;;5094090;28;20107;-72
2022/07/09 12:10:35;;;;;;;2.17;0.25;;;25.00;73.00;;;;;;5093903;28;20463;-72
2022/07/09 12:13:02;;;;;;;1.52;0.30;;;24.80;72.60;;;;;;5094320;28;20082;-72
2022/07/09 12:15:29;;;;;;;1.58;0.20;;;24.60;72.60;;;;;;5094090;28;20537;-72
2022/07/09 12:17:57;;;;;;;1.60;0.30;;;24.40;72.80;;;;;;5093758;28;20457;-72
2022/07/09 12:20:24;;;;;;;1.10;0.22;;;24.60;72.50;;;;;;5094014;28;20020;-73
2022/07/09 12:22:50;;;;;;;2.10;0.30;;;24.60;72.00;;;;;;5093918;28;20483;-73
2022/07/09 12:25:16;;;;;;;1.92;0.38;;;24.70;70.60;;;;;;5093728;28;20051;-72
2022/07/09 12:27:42;;;;;;;1.13;0.20;;;24.80;69.50;;;;;;5094008;28;20464;-73
2022/07/09 12:30:08;;;;;;;1.58;0.17;;;24.80;69.20;;;;;;5094028;28;20024;-73
2022/07/09 12:32:34;;;;;;;1.00;0.20;;;24.90;68.60;;;;;;5093842;28;20063;-73
2022/07/09 12:35:00;;;;;;;3.17;0.40;;;24.90;68.30;;;;;;5093843;28;20042;-73
2022/07/09 12:37:26;;;;;;;1.55;0.30;;;24.70;68.80;;;;;;5093825;28;20025;-73
2022/07/09 12:39:53;;;;;;;1.33;0.30;;;24.60;68.80;;;;;;5093630;28;20023;-73
2022/07/09 12:42:20;;;;;;;3.35;0.30;;;24.60;69.80;;;;;;5093787;28;20032;-73